Time,TemperatureF,DewpointF,PressureIn,WindDirection,WindDirectionDegrees,WindSpeedMPH,WindSpeedGustMPH,Humidity,HourlyPrecipIn,Conditions,Clouds,dailyrainin,SoftwareType,DateUTC
2013-08-02 00:05:00,68.1,64.4,29.95,NNW,333,0.0,0.0,88,0.00,,,0.00,Wunderground v.1.15,2013-08-02 05:05:00,
2013-08-02 00:15:00,68.0,64.3,29.95,NNW,333,0.0,0.0,88,0.00,,,0.00,Wunderground v.1.15,2013-08-02 05:15:00,
2013-08-02 00:25:00,68.6,64.2,29.95,NNW,333,0.0,0.0,86,0.00,,,0.00,Wunderground v.1.15,2013-08-02 05:25:00,
2013-08-02 00:35:00,69.0,64.0,29.95,NNW,333,0.0,0.0,84,0.00,,,0.00,Wunderground v.1.15,2013-08-02 05:35:00,
2013-08-02 00:45:00,69.5,64.1,29.95,NNW,333,0.0,0.0,83,0.00,,,0.00,Wunderground v.1.15,2013-08-02 05:45:00,
2013-08-02 00:55:00,70.1,64.3,29.95,NNW,333,0.0,0.0,82,0.00,,,0.00,Wunderground v.1.15,2013-08-02 05:55:00,
2013-08-02 01:05:00,70.3,64.5,29.94,NNW,333,0.0,0.0,82,0.00,,,0.00,Wunderground v.1.15,2013-08-02 06:05:00,
2013-08-02 01:10:00,70.5,64.7,29.94,NNW,333,0.0,0.0,82,0.00,,,0.00,Wunderground v.1.15,2013-08-02 06:10:00,
2013-08-02 01:20:00,70.7,64.6,29.93,NNW,333,0.0,0.0,81,0.00,,,0.00,Wunderground v.1.15,2013-08-02 06:20:00,
2013-08-02 01:30:00,70.6,64.8,29.94,NNW,333,0.0,0.0,82,0.00,,,0.00,Wunderground v.1.15,2013-08-02 06:30:00,
2013-08-02 01:40:00,70.5,64.7,29.93,NNW,333,0.0,0.0,82,0.00,,,0.00,Wunderground v.1.15,2013-08-02 06:40:00,
2013-08-02 01:50:00,70.1,64.7,29.93,NNW,333,0.0,0.0,83,0.00,,,0.00,Wunderground v.1.15,2013-08-02 06:50:00,
2013-08-02 02:00:00,69.8,64.7,29.92,NNW,333,0.0,3.0,84,0.00,,,0.00,Wunderground v.1.15,2013-08-02 07:00:00,
2013-08-02 02:10:00,70.3,65.2,29.92,NNW,333,0.0,0.0,84,0.00,,,0.00,Wunderground v.1.15,2013-08-02 07:10:00,
2013-08-02 02:20:00,70.7,65.6,29.92,NNW,333,1.0,1.0,84,0.00,,,0.00,Wunderground v.1.15,2013-08-02 07:20:00,
2013-08-02 02:29:00,70.9,65.8,29.92,NNW,333,0.0,1.0,84,0.00,,,0.00,Wunderground v.1.15,2013-08-02 07:29:00,
2013-08-02 02:35:00,71.1,65.7,29.92,NNW,333,0.0,1.0,83,0.00,,,0.00,Wunderground v.1.15,2013-08-02 07:35:00,
2013-08-02 02:45:00,71.3,65.9,29.92,NNW,332,0.0,0.0,83,0.00,,,0.00,Wunderground v.1.15,2013-08-02 07:45:00,
2013-08-02 02:55:00,71.3,65.9,29.92,NNW,333,0.0,0.0,83,0.00,,,0.00,Wunderground v.1.15,2013-08-02 07:55:00,
2013-08-02 03:05:00,71.3,65.9,29.92,NNW,333,0.0,0.0,83,0.00,,,0.00,Wunderground v.1.15,2013-08-02 08:05:00,
2013-08-02 03:15:00,71.1,66.0,29.91,NNW,333,0.0,0.0,84,0.00,,,0.00,Wunderground v.1.15,2013-08-02 08:15:00,
2013-08-02 03:25:00,70.8,65.7,29.92,NNW,333,0.0,0.0,84,0.00,,,0.00,Wunderground v.1.15,2013-08-02 08:25:00,
2013-08-02 03:35:00,70.8,66.1,29.93,NNW,333,0.0,0.0,85,0.00,,,0.00,Wunderground v.1.15,2013-08-02 08:35:00,
2013-08-02 03:45:00,70.8,66.1,29.93,NNW,333,0.0,0.0,85,0.00,,,0.00,Wunderground v.1.15,2013-08-02 08:45:00,
2013-08-02 03:54:00,70.5,65.8,29.93,NNW,333,0.0,0.0,85,0.00,,,0.00,Wunderground v.1.15,2013-08-02 08:54:00,
2013-08-02 04:00:00,70.5,65.8,29.94,NNW,333,0.0,0.0,85,0.00,,,0.00,Wunderground v.1.15,2013-08-02 09:00:00,
2013-08-02 04:10:00,70.3,65.9,29.94,NNW,331,0.0,0.0,86,0.00,,,0.00,Wunderground v.1.15,2013-08-02 09:10:00,
2013-08-02 04:20:00,70.0,66.0,29.93,NNW,333,0.0,0.0,87,0.00,,,0.00,Wunderground v.1.15,2013-08-02 09:20:00,
2013-08-02 04:30:00,69.9,65.9,29.93,NNW,333,0.0,0.0,87,0.00,,,0.00,Wunderground v.1.15,2013-08-02 09:30:00,
2013-08-02 04:40:00,70.3,66.2,29.93,NNW,331,0.0,0.0,87,0.00,,,0.00,Wunderground v.1.15,2013-08-02 09:40:00,
2013-08-02 04:55:00,70.8,66.4,29.94,NNW,333,0.0,0.0,86,0.00,,,0.00,Wunderground v.1.15,2013-08-02 09:55:00,
2013-08-02 05:05:00,71.0,66.6,29.94,NNW,333,0.0,0.0,86,0.00,,,0.00,Wunderground v.1.15,2013-08-02 10:05:00,
2013-08-02 05:15:00,70.9,66.5,29.93,NNW,333,0.0,0.0,86,0.00,,,0.00,Wunderground v.1.15,2013-08-02 10:15:00,
2013-08-02 05:25:00,70.9,66.8,29.93,NNW,333,0.0,0.0,87,0.00,,,0.00,Wunderground v.1.15,2013-08-02 10:25:00,
2013-08-02 05:35:00,71.0,66.9,29.92,NNW,333,0.0,0.0,87,0.00,,,0.00,Wunderground v.1.15,2013-08-02 10:35:00,
2013-08-02 05:45:00,70.9,66.8,29.93,NNW,333,0.0,0.0,87,0.00,,,0.00,Wunderground v.1.15,2013-08-02 10:45:00,
2013-08-02 05:54:00,70.7,66.6,29.93,NNW,333,0.0,0.0,87,0.00,,,0.00,Wunderground v.1.15,2013-08-02 10:54:00,
2013-08-02 06:00:00,70.5,66.4,29.93,NNW,331,0.0,0.0,87,0.00,,,0.00,Wunderground v.1.15,2013-08-02 11:00:00,
2013-08-02 06:10:00,70.4,66.7,29.93,NNW,333,0.0,0.0,88,0.00,,,0.00,Wunderground v.1.15,2013-08-02 11:10:00,
2013-08-02 06:20:00,70.3,66.6,29.92,NNW,333,0.0,0.0,88,0.00,,,0.00,Wunderground v.1.15,2013-08-02 11:20:00,
2013-08-02 06:30:00,70.3,66.6,29.92,NNW,333,0.0,0.0,88,0.00,,,0.00,Wunderground v.1.15,2013-08-02 11:30:00,
2013-08-02 06:40:00,70.4,66.7,29.92,NNW,333,1.0,3.0,88,0.00,,,0.00,Wunderground v.1.15,2013-08-02 11:40:00,
2013-08-02 06:50:00,70.4,66.7,29.93,NNW,333,0.0,0.0,88,0.00,,,0.00,Wunderground v.1.15,2013-08-02 11:50:00,
2013-08-02 06:59:00,70.5,66.8,29.93,NNW,333,0.0,0.0,88,0.00,,,0.00,Wunderground v.1.15,2013-08-02 11:59:00,
2013-08-02 07:05:00,70.6,66.9,29.93,NNW,333,0.0,0.0,88,0.00,,,0.00,Wunderground v.1.15,2013-08-02 12:05:00,
2013-08-02 07:15:00,70.7,67.0,29.93,NNW,333,1.0,2.0,88,0.00,,,0.00,Wunderground v.1.15,2013-08-02 12:15:00,
2013-08-02 07:25:00,71.0,67.3,29.94,NNW,333,0.0,2.0,88,0.00,,,0.00,Wunderground v.1.15,2013-08-02 12:25:00,
2013-08-02 07:35:00,71.3,67.2,29.94,NNW,330,1.0,3.0,87,0.00,,,0.00,Wunderground v.1.15,2013-08-02 12:35:00,
2013-08-02 07:45:00,71.7,67.6,29.93,NNW,329,1.0,1.0,87,0.00,,,0.00,Wunderground v.1.15,2013-08-02 12:45:00,
2013-08-02 07:55:00,72.1,67.7,29.93,NNW,329,1.0,3.0,86,0.00,,,0.00,Wunderground v.1.15,2013-08-02 12:55:00,
2013-08-02 08:05:00,72.5,68.1,29.93,NNW,327,2.0,2.0,86,0.00,,,0.00,Wunderground v.1.15,2013-08-02 13:05:00,
2013-08-02 08:15:00,72.6,68.2,29.94,NW,325,2.0,2.0,86,0.00,,,0.00,Wunderground v.1.15,2013-08-02 13:15:00,
2013-08-02 08:24:00,72.8,68.0,29.94,NW,324,1.0,2.0,85,0.00,,,0.00,Wunderground v.1.15,2013-08-02 13:24:00,
2013-08-02 08:30:00,72.9,68.1,29.94,NW,320,2.0,2.0,85,0.00,,,0.00,Wunderground v.1.15,2013-08-02 13:30:00,
2013-08-02 08:40:00,73.2,68.4,29.94,NW,319,1.0,3.0,85,0.00,,,0.00,Wunderground v.1.15,2013-08-02 13:40:00,
2013-08-02 08:50:00,73.6,68.8,29.94,NW,318,1.0,2.0,85,0.00,,,0.00,Wunderground v.1.15,2013-08-02 13:50:00,
2013-08-02 09:00:00,73.8,68.7,29.94,NW,313,1.0,2.0,84,0.00,,,0.00,Wunderground v.1.15,2013-08-02 14:00:00,
2013-08-02 09:10:00,74.1,69.0,29.93,West,281,2.0,2.0,84,0.00,,,0.00,Wunderground v.1.15,2013-08-02 14:10:00,
2013-08-02 09:20:00,74.2,69.1,29.93,WSW,256,3.0,3.0,84,0.00,,,0.00,Wunderground v.1.15,2013-08-02 14:20:00,
2013-08-02 09:30:00,74.5,69.0,29.93,WSW,251,3.0,6.0,83,0.00,,,0.00,Wunderground v.1.15,2013-08-02 14:30:00,
2013-08-02 09:40:00,74.8,69.3,29.92,WSW,250,3.0,4.0,83,0.00,,,0.00,Wunderground v.1.15,2013-08-02 14:40:00,
2013-08-02 09:49:00,75.2,69.3,29.93,WSW,250,3.0,6.0,82,0.00,,,0.00,Wunderground v.1.15,2013-08-02 14:49:00,
2013-08-02 10:00:00,75.8,69.6,29.93,WSW,250,3.0,3.0,81,0.00,,,0.00,Wunderground v.1.15,2013-08-02 15:00:00,
2013-08-02 10:10:00,76.6,69.6,29.92,SW,221,3.0,3.0,79,0.00,,,0.00,Wunderground v.1.15,2013-08-02 15:10:00,
2013-08-02 10:20:00,77.1,69.7,29.93,SSW,198,5.0,7.0,78,0.00,,,0.00,Wunderground v.1.15,2013-08-02 15:20:00,
2013-08-02 10:30:00,77.7,69.5,29.93,South,190,5.0,5.0,76,0.00,,,0.00,Wunderground v.1.15,2013-08-02 15:30:00,
2013-08-02 10:40:00,78.1,70.7,29.93,SSW,213,5.0,6.0,78,0.00,,,0.00,Wunderground v.1.15,2013-08-02 15:40:00,
2013-08-02 10:50:00,79.6,71.0,29.93,SSW,202,4.0,4.0,75,0.00,,,0.00,Wunderground v.1.15,2013-08-02 15:50:00,
2013-08-02 11:00:00,80.1,71.1,29.93,SSW,203,4.0,7.0,74,0.00,,,0.00,Wunderground v.1.15,2013-08-02 16:00:00,
2013-08-02 11:10:00,80.7,71.6,29.93,SSW,192,4.0,4.0,74,0.00,,,0.00,Wunderground v.1.15,2013-08-02 16:10:00,
2013-08-02 11:19:00,81.2,70.5,29.93,South,189,4.0,4.0,70,0.00,,,0.00,Wunderground v.1.15,2013-08-02 16:19:00,
2013-08-02 11:25:00,81.7,70.5,29.93,SSW,210,3.0,4.0,69,0.00,,,0.00,Wunderground v.1.15,2013-08-02 16:25:00,
2013-08-02 11:35:00,81.8,70.6,29.94,SSW,198,4.0,7.0,69,0.00,,,0.00,Wunderground v.1.15,2013-08-02 16:35:00,
2013-08-02 11:45:00,81.2,70.5,29.93,SW,214,2.0,8.0,70,0.00,,,0.00,Wunderground v.1.15,2013-08-02 16:45:00,
2013-08-02 11:54:00,80.5,69.8,29.94,SSW,210,2.0,4.0,70,0.00,,,0.00,Wunderground v.1.15,2013-08-02 16:54:00,
2013-08-02 12:05:00,79.8,69.6,29.94,SSW,209,3.0,4.0,71,0.00,,,0.00,Wunderground v.1.15,2013-08-02 17:05:00,
2013-08-02 12:15:00,79.4,70.0,29.94,SSW,207,3.0,3.0,73,0.00,,,0.00,Wunderground v.1.15,2013-08-02 17:15:00,
2013-08-02 12:25:00,79.3,70.3,29.94,SSW,207,2.0,3.0,74,0.00,,,0.00,Wunderground v.1.15,2013-08-02 17:25:00,
2013-08-02 12:35:00,79.3,70.7,29.94,SSW,210,2.0,2.0,75,0.00,,,0.00,Wunderground v.1.15,2013-08-02 17:35:00,
2013-08-02 12:45:00,78.6,70.8,29.94,SSW,207,3.0,4.0,77,0.00,,,0.00,Wunderground v.1.15,2013-08-02 17:45:00,
2013-08-02 12:50:00,78.4,71.3,29.93,SSW,206,3.0,3.0,79,0.00,,,0.00,Wunderground v.1.15,2013-08-02 17:50:00,
2013-08-02 13:00:00,78.0,71.3,29.93,SSW,207,2.0,2.0,80,0.00,,,0.00,Wunderground v.1.15,2013-08-02 18:00:00,
2013-08-02 13:10:00,78.3,72.0,29.92,SSW,207,0.0,2.0,81,0.00,,,0.00,Wunderground v.1.15,2013-08-02 18:10:00,
2013-08-02 13:20:00,78.7,72.4,29.92,SSW,206,1.0,1.0,81,0.00,,,0.00,Wunderground v.1.15,2013-08-02 18:20:00,
2013-08-02 13:30:00,78.9,72.9,29.92,SSW,207,0.0,1.0,82,0.00,,,0.00,Wunderground v.1.15,2013-08-02 18:30:00,
2013-08-02 13:40:00,78.6,72.3,29.92,SSW,206,1.0,1.0,81,0.00,,,0.00,Wunderground v.1.15,2013-08-02 18:40:00,
2013-08-02 13:50:00,78.3,72.3,29.91,SSW,207,1.0,1.0,82,0.00,,,0.00,Wunderground v.1.15,2013-08-02 18:50:00,
2013-08-02 14:00:00,78.2,72.3,29.91,SSW,207,1.0,1.0,82,0.00,,,0.00,Wunderground v.1.15,2013-08-02 19:00:00,
2013-08-02 14:10:00,78.2,71.9,29.91,SSW,206,1.0,1.0,81,0.00,,,0.00,Wunderground v.1.15,2013-08-02 19:10:00,
2013-08-02 14:15:00,78.4,72.8,29.91,SSW,207,0.0,1.0,83,0.00,,,0.00,Wunderground v.1.15,2013-08-02 19:15:00,
2013-08-02 14:25:00,78.6,72.3,29.92,SSW,207,0.0,0.0,81,0.00,,,0.00,Wunderground v.1.15,2013-08-02 19:25:00,
2013-08-02 14:35:00,78.5,71.8,29.92,SSW,206,2.0,2.0,80,0.00,,,0.00,Wunderground v.1.15,2013-08-02 19:35:00,
2013-08-02 14:45:00,78.5,72.2,29.92,SSW,207,1.0,2.0,81,0.00,,,0.00,Wunderground v.1.15,2013-08-02 19:45:00,
2013-08-02 14:55:00,78.1,71.4,29.91,SSW,206,2.0,4.0,80,0.00,,,0.00,Wunderground v.1.15,2013-08-02 19:55:00,
2013-08-02 15:05:00,77.6,71.7,29.91,SSW,206,2.0,3.0,82,0.00,,,0.00,Wunderground v.1.15,2013-08-02 20:05:00,
2013-08-02 15:15:00,77.8,72.2,29.90,SSW,207,1.0,1.0,83,0.00,,,0.00,Wunderground v.1.15,2013-08-02 20:15:00,
2013-08-02 15:20:00,77.9,72.0,29.90,SSW,206,0.0,0.0,82,0.00,,,0.00,Wunderground v.1.15,2013-08-02 20:20:00,
2013-08-02 15:30:00,78.3,73.1,29.89,SSW,207,0.0,0.0,84,0.00,,,0.00,Wunderground v.1.15,2013-08-02 20:30:00,
2013-08-02 15:39:00,78.3,72.0,29.90,SSW,206,0.0,0.0,81,0.00,,,0.00,Wunderground v.1.15,2013-08-02 20:39:00,
2013-08-02 15:45:00,78.1,71.8,29.89,SSW,206,0.0,0.0,81,0.00,,,0.00,Wunderground v.1.15,2013-08-02 20:45:00,
2013-08-02 15:55:00,78.0,71.7,29.89,SSW,206,0.0,0.0,81,0.00,,,0.00,Wunderground v.1.15,2013-08-02 20:55:00,
2013-08-02 16:05:00,77.7,72.1,29.89,SSW,207,0.0,0.0,83,0.00,,,0.00,Wunderground v.1.15,2013-08-02 21:05:00,
2013-08-02 16:15:00,77.1,71.9,29.89,SSW,206,0.0,0.0,84,0.00,,,0.00,Wunderground v.1.15,2013-08-02 21:15:00,
2013-08-02 16:25:00,76.6,72.1,29.90,SSW,206,0.0,0.0,86,0.10,,,0.02,Wunderground v.1.15,2013-08-02 21:25:00,
2013-08-02 16:35:00,75.8,71.7,29.90,SSW,207,0.0,0.0,87,0.10,,,0.03,Wunderground v.1.15,2013-08-02 21:35:00,
2013-08-02 16:45:00,75.0,71.9,29.90,SSW,207,0.0,0.0,90,0.16,,,0.06,Wunderground v.1.15,2013-08-02 21:45:00,
2013-08-02 16:55:00,74.4,71.6,29.89,SSW,207,0.0,0.0,91,0.17,,,0.08,Wunderground v.1.15,2013-08-02 21:55:00,
2013-08-02 17:05:00,74.0,71.8,29.89,SSW,207,0.0,0.0,93,0.15,,,0.15,Wunderground v.1.15,2013-08-02 22:05:00,
2013-08-02 17:10:00,73.9,71.7,29.89,SSW,207,0.0,0.0,93,0.20,,,0.17,Wunderground v.1.15,2013-08-02 22:10:00,
2013-08-02 17:20:00,73.3,71.2,29.89,SSW,207,0.0,0.0,93,0.16,,,0.21,Wunderground v.1.15,2013-08-02 22:20:00,
2013-08-02 17:30:00,73.0,71.2,29.89,SSW,207,0.0,0.0,94,0.09,,,0.23,Wunderground v.1.15,2013-08-02 22:30:00,
2013-08-02 17:35:00,73.0,71.2,29.89,SSW,207,0.0,0.0,94,0.34,,,0.24,Wunderground v.1.15,2013-08-02 22:35:00,
2013-08-02 17:45:00,72.8,71.3,29.88,SSW,207,0.0,0.0,95,0.25,,,0.32,Wunderground v.1.15,2013-08-02 22:45:00,
2013-08-02 17:55:00,72.6,71.1,29.88,SSW,207,0.0,0.0,95,0.07,,,0.33,Wunderground v.1.15,2013-08-02 22:55:00,
2013-08-02 18:05:00,72.4,71.2,29.88,SSW,207,0.0,0.0,96,0.04,,,0.34,Wunderground v.1.15,2013-08-02 23:05:00,
2013-08-02 18:15:00,72.2,71.0,29.87,SSW,200,2.0,5.0,96,0.04,,,0.34,Wunderground v.1.15,2013-08-02 23:15:00,
2013-08-02 18:24:00,72.2,71.0,29.87,SSW,200,1.0,3.0,96,0.00,,,0.35,Wunderground v.1.15,2013-08-02 23:24:00,
2013-08-02 18:34:00,72.3,71.1,29.88,SSW,199,0.0,0.0,96,0.75,,,0.45,Wunderground v.1.15,2013-08-02 23:34:00,
2013-08-02 18:40:00,72.3,71.4,29.89,SSW,200,0.0,0.0,97,0.28,,,0.49,Wunderground v.1.15,2013-08-02 23:40:00,
2013-08-02 18:49:00,72.2,71.3,29.88,SSW,200,0.0,0.0,97,0.13,,,0.52,Wunderground v.1.15,2013-08-02 23:49:00,
2013-08-02 19:00:00,72.0,71.1,29.88,SSW,199,0.0,3.0,97,0.06,,,0.52,Wunderground v.1.15,2013-08-03 00:00:00,
2013-08-02 19:10:00,71.9,71.0,29.88,SSW,200,1.0,1.0,97,0.00,,,0.52,Wunderground v.1.15,2013-08-03 00:10:00,
2013-08-02 19:20:00,71.9,71.0,29.88,SSW,199,0.0,0.0,97,0.00,,,0.52,Wunderground v.1.15,2013-08-03 00:20:00,
2013-08-02 19:30:00,71.9,71.0,29.89,SSW,200,0.0,2.0,97,0.00,,,0.52,Wunderground v.1.15,2013-08-03 00:30:00,
2013-08-02 19:40:00,71.8,70.9,29.90,WNW,295,3.0,8.0,97,0.00,,,0.53,Wunderground v.1.15,2013-08-03 00:40:00,
2013-08-02 19:50:00,71.5,70.6,29.89,NW,317,4.0,4.0,97,0.25,,,0.60,Wunderground v.1.15,2013-08-03 00:50:00,
2013-08-02 19:59:00,71.3,70.4,29.90,NW,317,0.0,1.0,97,0.26,,,0.63,Wunderground v.1.15,2013-08-03 00:59:00,
2013-08-02 20:05:00,71.3,70.4,29.90,NW,317,0.0,1.0,97,0.14,,,0.64,Wunderground v.1.15,2013-08-03 01:05:00,
2013-08-02 20:14:00,71.3,70.7,29.90,NW,317,0.0,0.0,98,0.20,,,0.67,Wunderground v.1.15,2013-08-03 01:14:00,
2013-08-02 20:25:00,71.3,70.7,29.91,NW,317,0.0,0.0,98,0.07,,,0.68,Wunderground v.1.15,2013-08-03 01:25:00,
2013-08-02 20:35:00,71.2,70.6,29.91,NW,317,0.0,0.0,98,0.05,,,0.69,Wunderground v.1.15,2013-08-03 01:35:00,
2013-08-02 20:45:00,71.2,70.6,29.91,NW,317,0.0,0.0,98,0.04,,,0.69,Wunderground v.1.15,2013-08-03 01:45:00,
2013-08-02 20:55:00,71.2,70.6,29.90,NW,317,0.0,0.0,98,0.16,,,0.71,Wunderground v.1.15,2013-08-03 01:55:00,
2013-08-02 21:04:00,71.2,70.6,29.90,NNW,348,2.0,5.0,98,0.05,,,0.71,Wunderground v.1.15,2013-08-03 02:04:00,
2013-08-02 21:10:00,71.2,70.6,29.90,NNW,348,3.0,3.0,98,0.00,,,0.71,Wunderground v.1.15,2013-08-03 02:10:00,
2013-08-02 21:20:00,71.2,70.6,29.91,NNW,348,1.0,1.0,98,0.00,,,0.71,Wunderground v.1.15,2013-08-03 02:20:00,
2013-08-02 21:30:00,71.2,70.6,29.91,NNW,348,0.0,0.0,98,0.00,,,0.71,Wunderground v.1.15,2013-08-03 02:30:00,
2013-08-02 21:40:00,71.3,70.7,29.91,NNW,348,0.0,0.0,98,0.00,,,0.71,Wunderground v.1.15,2013-08-03 02:40:00,
2013-08-02 21:50:00,71.3,70.7,29.91,NNW,348,0.0,0.0,98,0.00,,,0.71,Wunderground v.1.15,2013-08-03 02:50:00,
2013-08-02 22:00:00,71.3,70.7,29.91,NNW,348,0.0,0.0,98,0.00,,,0.71,Wunderground v.1.15,2013-08-03 03:00:00,
2013-08-02 22:10:00,71.3,70.7,29.90,NNW,348,0.0,0.0,98,0.00,,,0.71,Wunderground v.1.15,2013-08-03 03:10:00,
2013-08-02 22:20:00,71.4,70.8,29.90,NNW,348,0.0,0.0,98,0.00,,,0.71,Wunderground v.1.15,2013-08-03 03:20:00,
2013-08-02 22:29:00,71.5,70.9,29.89,NNW,348,0.0,1.0,98,0.00,,,0.71,Wunderground v.1.15,2013-08-03 03:29:00,
2013-08-02 22:35:00,71.5,70.9,29.89,NNW,348,1.0,1.0,98,0.00,,,0.71,Wunderground v.1.15,2013-08-03 03:35:00,
2013-08-02 22:45:00,71.5,70.9,29.89,NNW,348,1.0,1.0,98,0.00,,,0.71,Wunderground v.1.15,2013-08-03 03:45:00,
2013-08-02 22:55:00,71.5,70.9,29.90,NNW,348,0.0,0.0,98,0.00,,,0.71,Wunderground v.1.15,2013-08-03 03:55:00,
2013-08-02 23:04:00,71.3,71.0,29.89,NNW,348,0.0,0.0,99,0.00,,,0.71,Wunderground v.1.15,2013-08-03 04:04:00,
2013-08-02 23:09:00,71.3,71.0,29.89,NNW,348,0.0,0.0,99,0.00,,,0.71,Wunderground v.1.15,2013-08-03 04:09:00,
2013-08-02 23:15:00,71.3,71.0,29.89,NNW,348,0.0,0.0,99,0.00,,,0.71,Wunderground v.1.15,2013-08-03 04:15:00,
2013-08-02 23:25:00,71.2,70.9,29.90,NNW,348,0.0,0.0,99,0.00,,,0.71,Wunderground v.1.15,2013-08-03 04:25:00,
2013-08-02 23:35:00,71.1,70.8,29.90,NNW,348,0.0,0.0,99,0.00,,,0.71,Wunderground v.1.15,2013-08-03 04:35:00,
2013-08-02 23:44:00,71.0,70.7,29.91,NNW,348,0.0,0.0,99,0.00,,,0.71,Wunderground v.1.15,2013-08-03 04:44:00,
2013-08-02 23:50:00,71.0,70.7,29.91,NNW,348,0.0,0.0,99,0.00,,,0.71,Wunderground v.1.15,2013-08-03 04:50:00,